createdAt,value
2022-12-28T00:01:59.003Z,100509.81
2022-12-28T00:06:01.123Z,100501.41
2022-12-28T00:10:03.349Z,100494.06
2022-12-28T00:14:05.343Z,100490.53
2022-12-28T00:18:07.103Z,100492.19
2022-12-28T00:22:08.750Z,100478.34
2022-12-28T00:26:12.670Z,100468.34
2022-12-28T00:30:14.358Z,100455.91
2022-12-28T00:34:16.181Z,100459.88
2022-12-28T00:38:17.734Z,100448.94
2022-12-28T00:42:19.359Z,100440.97
2022-12-28T00:46:20.962Z,100422.69
2022-12-28T00:50:22.570Z,100411.94
2022-12-28T00:54:24.118Z,100422.72
2022-12-28T00:58:25.749Z,100415.63
2022-12-28T01:02:28.544Z,100412.25
2022-12-28T01:06:31.230Z,100395.94
2022-12-28T01:10:32.812Z,100389.66
2022-12-28T01:14:34.449Z,100376.81
2022-12-28T01:18:36.232Z,100370.94
2022-12-28T01:22:38.103Z,100368.88
2022-12-28T01:26:42.103Z,100362.78
2022-12-28T01:30:45.236Z,100344.94
2022-12-28T01:34:47.378Z,100357.38
2022-12-28T01:38:55.925Z,100361.41
2022-12-28T01:42:58.873Z,100330.72
2022-12-28T01:47:04.611Z,100336.22
2022-12-28T01:51:08.189Z,100315.84
2022-12-28T01:55:25.616Z,100314.56
2022-12-28T01:59:34.626Z,100311.03
2022-12-28T02:03:36.819Z,100298.81
2022-12-28T02:07:48.492Z,100284.72
2022-12-28T02:11:50.770Z,100272.91
2022-12-28T02:15:52.434Z,100268.25
2022-12-28T02:19:54.153Z,100272.28
2022-12-28T02:23:58.531Z,100279.81
2022-12-28T02:28:07.026Z,100288.25
2022-12-28T02:32:36.039Z,100284.44
2022-12-28T02:36:46.192Z,100269.44
2022-12-28T02:40:56.525Z,100277.25
2022-12-28T02:45:17.060Z,100284.41
2022-12-28T02:49:41.433Z,100279.81
2022-12-28T02:54:39.592Z,100273.94
2022-12-28T02:58:49.102Z,100257.09
2022-12-28T03:03:00.174Z,100248.03
2022-12-28T03:07:49.598Z,100235.84
2022-12-28T03:12:09.664Z,100239.44
2022-12-28T03:16:28.697Z,100244.06
2022-12-28T03:20:50.566Z,100246.38
2022-12-28T03:25:11.998Z,100250.19
2022-12-28T03:29:36.340Z,100225.97
2022-12-28T03:33:48.395Z,100223.66
2022-12-28T03:42:35.410Z,100208.72
2022-12-28T03:46:46.502Z,100191.22
2022-12-28T03:50:50.150Z,100191.44
2022-12-28T03:54:52.814Z,100174.38
2022-12-28T03:58:55.913Z,100168.88
2022-12-28T04:03:00.893Z,100148.63
2022-12-28T04:07:03.576Z,100143.97
2022-12-28T04:11:05.503Z,100136.59
2022-12-28T04:15:08.427Z,100139.69
2022-12-28T04:19:10.599Z,100133.56
2022-12-28T04:23:12.207Z,100130.94
2022-12-28T04:27:13.801Z,100131.53
2022-12-28T04:31:15.589Z,100141.22
2022-12-28T04:35:24.812Z,100130.44
2022-12-28T04:39:27.798Z,100135.25
2022-12-28T04:43:49.455Z,100117.28
2022-12-28T04:47:51.008Z,100120.97
2022-12-28T04:51:52.922Z,100127.72
2022-12-28T04:55:55.185Z,100124.53
2022-12-28T04:59:56.718Z,100110.78
2022-12-28T05:03:59.545Z,100108.47
2022-12-28T05:08:02.273Z,100105.91
2022-12-28T05:12:04.142Z,100108.66
2022-12-28T05:16:09.643Z,100116.00
2022-12-28T05:20:11.779Z,100100.19
2022-12-28T05:24:13.409Z,100102.94
2022-12-28T05:28:14.974Z,100104.44
2022-12-28T05:32:16.614Z,100099.41
2022-12-28T05:36:20.684Z,100099.84
2022-12-28T05:40:22.248Z,100089.34
2022-12-28T05:44:25.374Z,100085.13
2022-12-28T05:48:27.103Z,100089.78
2022-12-28T05:52:30.240Z,100080.47
2022-12-28T05:56:32.683Z,100072.69
2022-12-28T06:00:34.328Z,100078.63
2022-12-28T06:04:35.947Z,100070.16
2022-12-28T06:08:38.750Z,100058.38
2022-12-28T06:12:40.379Z,100064.13
2022-12-28T06:16:42.796Z,100060.28
2022-12-28T06:20:44.502Z,100056.63
2022-12-28T06:24:48.081Z,100054.13
2022-12-28T06:28:52.775Z,100060.66
2022-12-28T06:32:56.460Z,100051.66
2022-12-28T06:36:58.327Z,100040.13
2022-12-28T06:41:14.218Z,100033.38
2022-12-28T06:45:17.294Z,100032.56
2022-12-28T06:49:22.766Z,100028.16
2022-12-28T06:53:29.142Z,100022.03
2022-12-28T06:57:31.224Z,100026.03
2022-12-28T07:01:39.992Z,100022.03
2022-12-28T07:05:41.752Z,100028.34
2022-12-28T07:09:43.533Z,100023.31
2022-12-28T07:13:45.417Z,100027.09
2022-12-28T07:17:47.097Z,100024.97
2022-12-28T07:21:49.791Z,100020.72
2022-12-28T07:25:54.167Z,100030.63
2022-12-28T07:29:55.792Z,100022.22
2022-12-28T07:33:59.395Z,100017.09
2022-12-28T07:38:01.215Z,100028.22
2022-12-28T07:42:06.767Z,100028.84
2022-12-28T07:46:11.912Z,100015.50
2022-12-28T07:50:14.492Z,100014.59
2022-12-28T07:54:16.614Z,100007.22
2022-12-28T07:58:18.132Z,100005.28
2022-12-28T08:02:20.240Z,99996.34
2022-12-28T08:06:25.968Z,99981.34
2022-12-28T08:10:27.582Z,99985.47
2022-12-28T08:14:30.781Z,99988.75
2022-12-28T08:18:34.240Z,99993.09
2022-12-28T08:22:35.858Z,99992.81
2022-12-28T08:26:39.452Z,99990.28
2022-12-28T08:30:55.309Z,99980.06
2022-12-28T08:34:57.360Z,99984.03
2022-12-28T08:39:02.179Z,99983.72
2022-12-28T08:43:03.889Z,99975.88
2022-12-28T08:47:06.188Z,99978.00
2022-12-28T08:51:35.915Z,99982.72
2022-12-28T08:55:37.452Z,99973.41
2022-12-28T08:59:39.140Z,99983.34
2022-12-28T09:03:43.551Z,99974.47
2022-12-28T09:07:45.834Z,99975.41
2022-12-28T09:11:48.171Z,99969.44
2022-12-28T09:16:00.317Z,99979.69
2022-12-28T09:20:02.130Z,99970.59
2022-12-28T09:24:04.081Z,99973.84
2022-12-28T09:28:05.654Z,99973.06
2022-12-28T09:32:07.183Z,99980.19
2022-12-28T09:36:09.173Z,99971.03
2022-12-28T09:40:13.135Z,99966.03
2022-12-28T09:44:17.729Z,99969.84
2022-12-28T09:48:23.169Z,99960.44
2022-12-28T09:52:31.148Z,99961.41
2022-12-28T09:56:57.451Z,99955.44
2022-12-28T10:01:01.882Z,99953.66
2022-12-28T10:05:04.152Z,99951.84
2022-12-28T10:09:13.608Z,99949.47
2022-12-28T10:13:54.943Z,99941.09
2022-12-28T10:17:57.319Z,99940.13
2022-12-28T10:22:00.576Z,99937.50
2022-12-28T10:26:04.864Z,99939.50
2022-12-28T10:30:16.362Z,99928.69
2022-12-28T10:34:21.410Z,99918.31
2022-12-28T10:38:27.619Z,99902.66
2022-12-28T10:42:40.098Z,99901.50
2022-12-28T10:46:52.645Z,99903.22
2022-12-28T10:50:58.962Z,99898.72
2022-12-28T10:55:07.695Z,99891.84
2022-12-28T10:59:10.275Z,99891.38
2022-12-28T11:03:20.177Z,99884.31
2022-12-28T11:07:35.630Z,99878.81
2022-12-28T11:11:37.444Z,99868.31
2022-12-28T11:15:40.836Z,99864.47
2022-12-28T11:19:42.885Z,99871.81
2022-12-28T11:23:44.849Z,99853.75
2022-12-28T11:27:47.872Z,99845.91
2022-12-28T11:31:56.142Z,99850.44
2022-12-28T11:35:59.915Z,99845.47
2022-12-28T11:40:02.466Z,99830.97
2022-12-28T11:44:05.707Z,99823.00
2022-12-28T11:48:41.744Z,99817.34
2022-12-28T11:52:47.927Z,99816.84
2022-12-28T11:56:52.211Z,99821.47
2022-12-28T12:00:55.106Z,99816.81
2022-12-28T12:04:57.117Z,99814.56
2022-12-28T12:08:58.744Z,99807.88
2022-12-28T12:13:02.615Z,99800.69
2022-12-28T12:17:14.101Z,99787.47
2022-12-28T12:21:42.047Z,99767.41
2022-12-28T12:25:48.647Z,99771.72
2022-12-28T12:30:02.080Z,99770.56
2022-12-28T12:34:26.406Z,99773.00
2022-12-28T12:38:44.120Z,99773.53
2022-12-28T12:43:07.358Z,99765.44
2022-12-28T12:47:27.826Z,99749.66
2022-12-28T12:51:50.483Z,99742.66
2022-12-28T12:55:51.947Z,99742.06
2022-12-28T13:00:04.088Z,99731.69
2022-12-28T13:04:21.762Z,99731.47
2022-12-28T13:08:32.875Z,99720.50
2022-12-28T13:12:36.209Z,99722.97
2022-12-28T13:16:38.487Z,99716.72
2022-12-28T13:20:40.064Z,99718.22
2022-12-28T13:24:46.076Z,99707.28
2022-12-28T13:29:00.106Z,99710.34
2022-12-28T13:33:04.618Z,99697.06
2022-12-28T13:37:17.386Z,99690.00
2022-12-28T13:41:25.897Z,99689.75
2022-12-28T13:45:27.817Z,99674.63
2022-12-28T13:49:35.502Z,99669.47
2022-12-28T13:53:38.086Z,99671.56
2022-12-28T13:57:48.229Z,99675.59
2022-12-28T14:01:51.387Z,99661.00
2022-12-28T14:05:56.087Z,99646.50
2022-12-28T14:09:58.614Z,99653.84
2022-12-28T14:14:00.436Z,99645.28
2022-12-28T14:18:02.780Z,99636.00
2022-12-28T14:22:28.634Z,99628.75
2022-12-28T14:26:30.528Z,99621.31
2022-12-28T14:30:42.107Z,99640.25
2022-12-28T14:34:43.845Z,99616.59
2022-12-28T14:38:48.572Z,99610.56
2022-12-28T14:42:52.347Z,99610.06
2022-12-28T14:46:54.908Z,99607.81
2022-12-28T14:51:04.546Z,99595.19
2022-12-28T14:55:25.112Z,99600.53
2022-12-28T14:59:36.660Z,99610.97
2022-12-28T15:03:58.130Z,99601.88
2022-12-28T15:07:59.934Z,99597.06
2022-12-28T15:12:09.855Z,99597.06
2022-12-28T15:16:14.099Z,99596.75
2022-12-28T15:20:17.611Z,99588.28
2022-12-28T15:24:22.505Z,99585.34
2022-12-28T15:28:26.421Z,99579.00
2022-12-28T15:32:28.956Z,99569.69
2022-12-28T15:36:30.622Z,99577.06
2022-12-28T15:40:32.352Z,99565.66
2022-12-28T15:44:33.968Z,99557.81
2022-12-28T15:48:35.646Z,99548.91
2022-12-28T15:52:43.361Z,99541.84
2022-12-28T15:56:52.503Z,99557.53
2022-12-28T16:00:54.586Z,99543.81
2022-12-28T16:05:08.992Z,99524.66
2022-12-28T16:09:12.037Z,99522.72
2022-12-28T16:13:13.591Z,99516.91
2022-12-28T16:17:15.716Z,99520.47
2022-12-28T16:21:18.115Z,99517.16
2022-12-28T16:25:19.653Z,99525.66
2022-12-28T16:29:21.413Z,99520.84
2022-12-28T16:33:23.781Z,99518.31
2022-12-28T16:37:25.423Z,99520.75
2022-12-28T16:41:33.028Z,99521.34
2022-12-28T16:45:43.148Z,99513.72
2022-12-28T16:49:44.736Z,99514.31
2022-12-28T16:53:46.521Z,99521.47
2022-12-28T16:57:48.066Z,99511.38
2022-12-28T17:01:50.017Z,99521.25
2022-12-28T17:05:52.717Z,99506.78
2022-12-28T17:09:54.435Z,99518.09
2022-12-28T17:14:09.587Z,99512.00
2022-12-28T17:18:12.299Z,99506.25
2022-12-28T17:22:14.068Z,99491.16
2022-12-28T17:26:15.631Z,99491.91
2022-12-28T17:30:17.714Z,99486.16
2022-12-28T17:34:19.437Z,99481.09
2022-12-28T17:38:21.237Z,99467.56
2022-12-28T17:42:23.044Z,99467.56
2022-12-28T17:46:27.150Z,99459.88
2022-12-28T17:50:28.869Z,99457.22
2022-12-28T17:54:30.392Z,99454.53
2022-12-28T17:58:35.542Z,99444.28
2022-12-28T18:02:37.495Z,99457.47
2022-12-28T18:06:39.659Z,99444.59
2022-12-28T18:10:42.044Z,99420.00
2022-12-28T18:14:44.009Z,99432.63
2022-12-28T18:19:02.359Z,99418.53
2022-12-28T18:23:06.547Z,99398.38
2022-12-28T18:27:09.262Z,99386.38
2022-12-28T18:31:11.120Z,99368.28
2022-12-28T18:35:12.706Z,99367.13
2022-12-28T18:39:14.680Z,99346.25
2022-12-28T18:43:16.229Z,99352.28
2022-12-28T18:47:18.178Z,99343.44
2022-12-28T18:51:20.363Z,99331.81
2022-12-28T18:55:22.162Z,99337.88
2022-12-28T18:59:24.666Z,99347.81
2022-12-28T19:03:26.906Z,99333.91
2022-12-28T19:07:29.554Z,99338.31
2022-12-28T19:11:31.443Z,99335.00
2022-12-28T19:15:33.136Z,99329.50
2022-12-28T19:19:34.722Z,99323.50
2022-12-28T19:23:36.307Z,99326.47
2022-12-28T19:27:37.906Z,99315.16
2022-12-28T19:31:39.788Z,99312.09
2022-12-28T19:35:41.466Z,99300.31
2022-12-28T19:39:44.006Z,99296.53
2022-12-28T19:43:46.054Z,99286.59
2022-12-28T19:47:47.580Z,99297.97
2022-12-28T19:51:52.155Z,99289.50
2022-12-28T19:56:06.717Z,99274.47
2022-12-28T20:00:09.244Z,99270.22
2022-12-28T20:04:14.469Z,99266.25
2022-12-28T20:08:16.549Z,99270.69
2022-12-28T20:12:19.443Z,99252.88
2022-12-28T20:16:28.062Z,99243.78
2022-12-28T20:20:40.717Z,99233.41
2022-12-28T20:24:51.258Z,99229.63
2022-12-28T20:28:53.015Z,99236.53
2022-12-28T20:32:59.664Z,99229.41
2022-12-28T20:37:02.483Z,99226.66
2022-12-28T20:41:08.668Z,99220.59
2022-12-28T20:45:10.399Z,99213.97
2022-12-28T20:49:12.714Z,99196.34
2022-12-28T20:53:15.242Z,99196.34
2022-12-28T20:57:16.847Z,99195.81
2022-12-28T21:01:18.686Z,99197.22
2022-12-28T21:05:20.783Z,99197.22
2022-12-28T21:09:25.393Z,99188.38
2022-12-28T21:13:27.480Z,99189.72
2022-12-28T21:17:29.036Z,99192.22
2022-12-28T21:21:30.708Z,99178.69
2022-12-28T21:25:35.272Z,99180.06
2022-12-28T21:29:36.959Z,99171.81
2022-12-28T21:33:39.166Z,99188.63
2022-12-28T21:37:43.994Z,99190.56
2022-12-28T21:41:49.741Z,99193.31
2022-12-28T21:46:08.265Z,99183.94
2022-12-28T21:50:11.200Z,99183.94
2022-12-28T21:54:19.880Z,99186.16
2022-12-28T21:58:21.471Z,99187.53
2022-12-28T22:02:41.929Z,99188.94
2022-12-28T22:06:43.745Z,99187.59
2022-12-28T22:11:03.837Z,99188.44
2022-12-28T22:15:46.051Z,99174.09
2022-12-28T22:19:48.295Z,99179.31
2022-12-28T22:23:49.833Z,99177.94
2022-12-28T22:27:51.618Z,99176.25
2022-12-28T22:31:53.313Z,99187.59
2022-12-28T22:35:54.904Z,99185.13
2022-12-28T22:39:56.618Z,99186.78
2022-12-28T22:43:58.190Z,99169.38
2022-12-28T22:48:00.007Z,99175.78
2022-12-28T22:52:01.531Z,99156.16
2022-12-28T22:56:06.032Z,99162.53
2022-12-28T23:00:11.898Z,99156.44
2022-12-28T23:04:14.949Z,99155.88
2022-12-28T23:08:16.569Z,99149.53
2022-12-28T23:12:18.103Z,99145.97
2022-12-28T23:16:19.739Z,99154.81
2022-12-28T23:20:40.137Z,99151.78
2022-12-28T23:25:00.546Z,99133.56
2022-12-28T23:29:02.095Z,99131.63
2022-12-28T23:33:03.782Z,99123.38
2022-12-28T23:37:05.409Z,99105.69
2022-12-28T23:41:25.617Z,99106.25
2022-12-28T23:45:27.243Z,99108.19
2022-12-28T23:49:28.884Z,99099.94
2022-12-28T23:53:30.457Z,99094.41
2022-12-28T23:57:32.180Z,99087.78
